Saint Germain, Wisconsin
Current Conditions -  °F | °C
As of 1:35 AM on Monday 22 Dec 2014 (Local Time) from KEGV Reporting Station
Haze Haze  
Wind Chill: 26°   Ceiling: 600
Heat Index: 32°   Visibility: 5mi
Dew Point: 32°   Wind: 7mph
Humidity: 100%   Direction: 170°S
Pressure: 29.82"   Gusts: NA
Location:  45.9°N, 89.49°W
Report Text: KEGV 220735Z AUTO 17006KT 5SM BR OVC006 00/00 A2982 RMK AO2 T00000000
Loading
Personal Weather Stations






























Interactive Weather Map New forecast layout! Learn more

10-Day Weather Forecast

Advertisements
Track Severe Weather on mobile